Time;durP1;ratioP1;P1;durP2;ratioP2;P2;SDS_P1;SDS_P2;PMS_P1;PMS_P2;Temp;Humidity;BMP_temperature;BMP_pressure;BME280_temperature;BME280_humidity;BME280_pressure;Samples;Min_cycle;Max_cycle;Signal;HPM_P1;HPM_P2
2024/04/01 00:01:46;;;;;;;;;;;19.30;65.50;;;;;;5042358;28;87005;-51
2024/04/01 00:04:11;;;;;;;;;;;19.30;65.50;;;;;;5044732;28;87752;-51
2024/04/01 00:06:37;;;;;;;;;;;19.30;65.50;;;;;;5044438;28;87753;-54
2024/04/01 00:09:02;;;;;;;;;;;19.30;65.60;;;;;;5045779;28;86687;-50
2024/04/01 00:11:28;;;;;;;;;;;19.20;65.60;;;;;;5042029;28;88545;-53
2024/04/01 00:13:53;;;;;;;;;;;19.30;65.60;;;;;;5048038;28;87066;-50
2024/04/01 00:16:19;;;;;;;;;;;19.20;65.60;;;;;;5043906;27;89490;-53
2024/04/01 00:18:44;;;;;;;;;;;19.20;65.60;;;;;;5044454;28;86933;-54
2024/04/01 00:21:10;;;;;;;;;;;19.20;65.70;;;;;;5042245;27;87655;-52
2024/04/01 00:23:36;;;;;;;;;;;19.20;65.60;;;;;;5043561;27;88567;-52
2024/04/01 00:26:02;;;;;;;;;;;19.20;65.60;;;;;;5041437;27;87426;-50
2024/04/01 00:28:28;;;;;;;;;;;19.20;65.70;;;;;;5043402;28;86901;-53
2024/04/01 00:30:53;;;;;;;;;;;19.20;65.70;;;;;;5045041;28;87770;-52
2024/04/01 00:33:19;;;;;;;;;;;19.20;65.70;;;;;;5045464;28;86706;-54
2024/04/01 00:35:45;;;;;;;;;;;19.20;65.70;;;;;;5046700;28;87163;-51
2024/04/01 00:38:11;;;;;;;;;;;19.20;66.30;;;;;;5043575;27;87062;-51
2024/04/01 00:40:36;;;;;;;;;;;19.10;65.60;;;;;;5040090;27;88081;-51
2024/04/01 00:43:03;;;;;;;;;;;19.10;65.70;;;;;;5042982;28;88685;-53
2024/04/01 00:45:28;;;;;;;;;;;19.10;65.70;;;;;;5042774;28;87013;-51
2024/04/01 00:47:56;;;;;;;;;;;19.10;65.70;;;;;;5044984;27;86978;-53
2024/04/01 00:50:24;;;;;;;;;;;19.10;65.70;;;;;;5042554;28;88557;-51
2024/04/01 00:52:49;;;;;;;;;;;19.10;65.70;;;;;;5044867;27;86997;-53
2024/04/01 00:55:15;;;;;;;;;;;19.10;65.80;;;;;;5046549;27;87082;-52
2024/04/01 00:57:40;;;;;;;;;;;19.10;65.80;;;;;;5040569;27;86387;-51
2024/04/01 01:00:07;;;;;;;;;;;19.10;65.80;;;;;;5045287;28;87021;-50
2024/04/01 01:02:32;;;;;;;;;;;19.10;65.90;;;;;;5044224;27;88235;-53
2024/04/01 01:04:58;;;;;;;;;;;19.10;65.90;;;;;;5044506;28;88260;-50
2024/04/01 01:07:24;;;;;;;;;;;19.10;65.90;;;;;;5042043;27;87943;-50
2024/04/01 01:09:50;;;;;;;;;;;19.00;65.80;;;;;;5043858;28;87075;-51
2024/04/01 01:12:16;;;;;;;;;;;19.00;65.90;;;;;;5043460;28;86930;-52
2024/04/01 01:14:41;;;;;;;;;;;19.00;66.00;;;;;;5045042;28;86990;-54
2024/04/01 01:17:07;;;;;;;;;;;19.00;65.90;;;;;;5046572;27;87951;-53
2024/04/01 01:19:32;;;;;;;;;;;19.00;66.00;;;;;;5043389;28;87798;-53
2024/04/01 01:22:03;;;;;;;;;;;19.00;66.00;;;;;;5043417;28;86851;-51
2024/04/01 01:24:30;;;;;;;;;;;18.90;65.90;;;;;;5043502;28;87404;-50
2024/04/01 01:26:56;;;;;;;;;;;18.90;65.90;;;;;;5041088;27;87911;-51
2024/04/01 01:29:21;;;;;;;;;;;18.90;66.00;;;;;;5037246;28;91635;-52
2024/04/01 01:31:47;;;;;;;;;;;18.90;66.00;;;;;;5044733;28;87052;-51
2024/04/01 01:34:12;;;;;;;;;;;18.90;65.90;;;;;;5044514;27;87259;-51
2024/04/01 01:36:38;;;;;;;;;;;18.90;65.80;;;;;;5042680;28;90391;-53
2024/04/01 01:39:05;;;;;;;;;;;18.90;65.90;;;;;;5047251;27;87015;-53
2024/04/01 01:41:31;;;;;;;;;;;18.90;65.90;;;;;;5044455;28;87489;-54
2024/04/01 01:43:56;;;;;;;;;;;18.90;65.80;;;;;;5044317;28;87045;-52
2024/04/01 01:46:22;;;;;;;;;;;18.90;65.80;;;;;;5044918;28;86814;-51
2024/04/01 01:48:47;;;;;;;;;;;18.80;65.70;;;;;;5043940;28;87655;-52
2024/04/01 01:51:13;;;;;;;;;;;18.90;65.80;;;;;;5041703;27;87110;-51
2024/04/01 01:53:38;;;;;;;;;;;18.80;65.80;;;;;;5041598;28;87901;-54
2024/04/01 01:56:04;;;;;;;;;;;18.80;65.70;;;;;;5047421;28;87872;-54
2024/04/01 01:58:30;;;;;;;;;;;18.80;65.90;;;;;;5046435;27;86978;-54
2024/04/01 02:00:56;;;;;;;;;;;18.80;65.80;;;;;;5049022;27;86876;-51
2024/04/01 02:03:21;;;;;;;;;;;18.80;65.80;;;;;;5046882;28;86906;-53
2024/04/01 02:05:49;;;;;;;;;;;18.80;65.90;;;;;;5047575;28;87545;-50
2024/04/01 02:08:15;;;;;;;;;;;18.80;66.00;;;;;;5044563;28;86984;-52
2024/04/01 02:10:40;;;;;;;;;;;18.70;65.90;;;;;;5048326;28;86282;-52
2024/04/01 02:13:09;;;;;;;;;;;18.70;65.90;;;;;;5047211;28;87044;-52
2024/04/01 02:15:34;;;;;;;;;;;18.70;65.90;;;;;;5046759;27;88728;-51
2024/04/01 02:18:00;;;;;;;;;;;18.70;65.90;;;;;;5045523;28;87875;-51
2024/04/01 02:20:26;;;;;;;;;;;18.70;65.90;;;;;;5046831;27;89029;-51
2024/04/01 02:22:52;;;;;;;;;;;18.70;66.00;;;;;;5048374;28;87153;-53
2024/04/01 02:25:17;;;;;;;;;;;18.70;66.00;;;;;;5047152;28;87961;-53
2024/04/01 02:27:43;;;;;;;;;;;18.60;66.00;;;;;;5046917;27;87562;-52
2024/04/01 02:30:09;;;;;;;;;;;18.60;66.10;;;;;;5047366;27;87096;-51
2024/04/01 02:32:35;;;;;;;;;;;18.60;66.00;;;;;;5047645;28;87393;-50
2024/04/01 02:35:00;;;;;;;;;;;18.60;66.00;;;;;;5047440;27;86702;-51
2024/04/01 02:37:26;;;;;;;;;;;18.60;66.10;;;;;;5045387;28;87378;-51
2024/04/01 02:39:51;;;;;;;;;;;18.60;66.10;;;;;;5046640;27;86952;-54
2024/04/01 02:42:17;;;;;;;;;;;18.60;66.00;;;;;;5046087;27;88604;-53
2024/04/01 02:44:42;;;;;;;;;;;18.60;66.10;;;;;;5049724;27;86971;-50
2024/04/01 02:47:08;;;;;;;;;;;18.60;66.10;;;;;;5044310;27;88354;-52
2024/04/01 02:49:33;;;;;;;;;;;18.60;66.10;;;;;;5046053;27;86980;-50
2024/04/01 02:51:59;;;;;;;;;;;18.60;66.20;;;;;;5046590;28;86990;-52
2024/04/01 02:54:24;;;;;;;;;;;18.50;66.10;;;;;;5043933;27;88293;-53
2024/04/01 02:56:50;;;;;;;;;;;18.50;66.10;;;;;;5041885;28;87858;-50
2024/04/01 02:59:15;;;;;;;;;;;18.50;66.10;;;;;;5044483;28;86720;-50
2024/04/01 03:01:41;;;;;;;;;;;18.50;66.10;;;;;;5045475;28;88615;-53
2024/04/01 03:04:07;;;;;;;;;;;18.50;66.10;;;;;;5047322;27;87791;-50
2024/04/01 03:06:32;;;;;;;;;;;18.50;66.10;;;;;;5045631;27;88387;-52
2024/04/01 03:08:59;;;;;;;;;;;18.50;66.20;;;;;;5045258;27;87070;-50
2024/04/01 03:11:24;;;;;;;;;;;18.50;66.20;;;;;;5043526;27;87033;-50
2024/04/01 03:13:50;;;;;;;;;;;18.50;66.20;;;;;;5042765;28;87479;-50
2024/04/01 03:16:16;;;;;;;;;;;18.50;66.20;;;;;;5046342;27;86991;-50
2024/04/01 03:18:42;;;;;;;;;;;18.40;66.20;;;;;;5042229;27;88026;-51
2024/04/01 03:21:08;;;;;;;;;;;18.40;66.20;;;;;;5045505;28;88012;-53
2024/04/01 03:23:33;;;;;;;;;;;18.40;66.10;;;;;;5041832;28;87369;-50
2024/04/01 03:25:59;;;;;;;;;;;18.40;66.20;;;;;;5044126;28;86953;-51
2024/04/01 03:28:25;;;;;;;;;;;18.40;66.20;;;;;;5043397;27;87093;-51
2024/04/01 03:30:50;;;;;;;;;;;18.40;66.20;;;;;;5044611;28;87924;-53
2024/04/01 03:33:16;;;;;;;;;;;18.40;66.20;;;;;;5045075;28;87848;-53
2024/04/01 03:35:42;;;;;;;;;;;18.40;66.20;;;;;;5045941;27;87002;-53
2024/04/01 03:38:08;;;;;;;;;;;18.40;66.10;;;;;;5044821;28;87039;-51
2024/04/01 03:40:40;;;;;;;;;;;18.30;66.10;;;;;;5045376;27;87636;-51
2024/04/01 03:43:06;;;;;;;;;;;18.30;66.10;;;;;;5041305;27;88299;-51
2024/04/01 03:45:33;;;;;;;;;;;18.30;66.10;;;;;;5042191;27;88053;-51
2024/04/01 03:47:58;;;;;;;;;;;18.30;66.00;;;;;;5048131;27;88267;-50
2024/04/01 03:50:24;;;;;;;;;;;18.30;66.00;;;;;;5045773;27;87427;-51
2024/04/01 03:52:49;;;;;;;;;;;18.30;65.90;;;;;;5045048;27;86922;-51
2024/04/01 03:55:15;;;;;;;;;;;18.20;65.90;;;;;;5044993;28;87836;-50
2024/04/01 03:57:41;;;;;;;;;;;18.20;66.00;;;;;;5044928;27;88939;-51
2024/04/01 04:00:07;;;;;;;;;;;18.20;66.10;;;;;;5042395;27;88007;-54
2024/04/01 04:02:32;;;;;;;;;;;18.20;66.10;;;;;;5041861;28;87120;-50
2024/04/01 04:04:58;;;;;;;;;;;18.20;66.10;;;;;;5045092;28;87703;-50
2024/04/01 04:07:23;;;;;;;;;;;18.20;66.10;;;;;;5044826;28;87444;-51
2024/04/01 04:09:49;;;;;;;;;;;18.20;66.20;;;;;;5045660;28;86963;-52
2024/04/01 04:12:15;;;;;;;;;;;18.20;66.30;;;;;;5045467;28;86773;-50
2024/04/01 04:14:40;;;;;;;;;;;18.20;66.30;;;;;;5041602;28;87674;-50
2024/04/01 04:17:07;;;;;;;;;;;18.20;66.40;;;;;;5044019;27;87087;-52
2024/04/01 04:19:32;;;;;;;;;;;18.20;66.40;;;;;;5044007;27;88922;-50
2024/04/01 04:21:58;;;;;;;;;;;18.10;66.30;;;;;;5045487;27;86988;-50
2024/04/01 04:24:25;;;;;;;;;;;18.10;66.30;;;;;;5042112;28;87104;-50
2024/04/01 04:26:51;;;;;;;;;;;18.10;66.50;;;;;;5042942;28;88434;-51
2024/04/01 04:29:17;;;;;;;;;;;18.10;66.40;;;;;;5045181;27;86996;-49
2024/04/01 04:31:54;;;;;;;;;;;18.10;66.20;;;;;;5047595;27;87690;-50
2024/04/01 04:34:20;;;;;;;;;;;18.10;66.90;;;;;;5038297;27;87093;-53
2024/04/01 04:36:46;;;;;;;;;;;18.00;66.70;;;;;;5043537;28;86946;-52
2024/04/01 04:39:19;;;;;;;;;;;18.10;66.20;;;;;;5043563;28;87592;-52
2024/04/01 04:41:47;;;;;;;;;;;18.00;66.20;;;;;;5044185;28;87239;-50
2024/04/01 04:44:13;;;;;;;;;;;18.00;66.10;;;;;;5043877;28;88011;-50
2024/04/01 04:46:38;;;;;;;;;;;18.00;66.20;;;;;;5042305;27;88452;-53
2024/04/01 04:49:04;;;;;;;;;;;18.00;66.10;;;;;;5045773;27;87255;-53
2024/04/01 04:51:30;;;;;;;;;;;18.00;66.10;;;;;;5047639;28;87003;-52
2024/04/01 04:53:55;;;;;;;;;;;18.00;66.10;;;;;;5043260;28;87047;-54
2024/04/01 04:56:21;;;;;;;;;;;18.00;65.90;;;;;;5044117;28;87014;-52
2024/04/01 04:58:46;;;;;;;;;;;18.00;65.90;;;;;;5042510;28;87499;-53
2024/04/01 05:01:12;;;;;;;;;;;18.00;66.00;;;;;;5041716;28;86234;-52
2024/04/01 05:03:37;;;;;;;;;;;18.00;66.00;;;;;;5044702;28;87017;-53
2024/04/01 05:06:03;;;;;;;;;;;18.00;66.10;;;;;;5042030;28;87664;-49
2024/04/01 05:08:28;;;;;;;;;;;17.90;65.90;;;;;;5043704;28;88049;-53
2024/04/01 05:10:55;;;;;;;;;;;17.90;65.90;;;;;;5042721;28;88133;-51
2024/04/01 05:13:20;;;;;;;;;;;18.00;65.90;;;;;;5047295;28;87563;-51
2024/04/01 05:15:46;;;;;;;;;;;17.90;66.10;;;;;;5042294;28;87694;-51
2024/04/01 05:18:11;;;;;;;;;;;17.90;66.00;;;;;;5044398;28;88206;-52
2024/04/01 05:20:37;;;;;;;;;;;17.90;66.10;;;;;;5039808;28;87042;-52
2024/04/01 05:23:02;;;;;;;;;;;17.90;66.20;;;;;;5039723;27;87503;-53
2024/04/01 05:25:28;;;;;;;;;;;17.90;66.20;;;;;;5040756;27;87747;-50
2024/04/01 05:27:54;;;;;;;;;;;17.90;66.20;;;;;;5045816;27;87771;-53
2024/04/01 05:30:23;;;;;;;;;;;17.90;66.90;;;;;;5046879;27;87060;-51
2024/04/01 05:32:49;;;;;;;;;;;17.80;66.30;;;;;;5046478;28;88628;-53
2024/04/01 05:35:16;;;;;;;;;;;17.80;66.30;;;;;;5048481;27;86990;-50
2024/04/01 05:37:43;;;;;;;;;;;17.90;66.40;;;;;;5046649;27;88608;-52
2024/04/01 05:40:08;;;;;;;;;;;17.80;66.20;;;;;;5047157;27;88092;-53
2024/04/01 05:42:34;;;;;;;;;;;17.80;66.30;;;;;;5047193;27;87535;-51
2024/04/01 05:44:59;;;;;;;;;;;17.80;66.40;;;;;;5046787;28;87612;-51
2024/04/01 05:47:25;;;;;;;;;;;17.80;66.40;;;;;;5046364;27;87769;-53
2024/04/01 05:49:50;;;;;;;;;;;17.80;66.30;;;;;;5047909;27;87937;-51
2024/04/01 05:52:16;;;;;;;;;;;17.80;66.20;;;;;;5043311;28;90808;-51
2024/04/01 05:54:41;;;;;;;;;;;17.90;66.20;;;;;;5045955;28;87376;-51
2024/04/01 05:57:07;;;;;;;;;;;17.90;66.20;;;;;;5046347;28;88100;-51
2024/04/01 05:59:33;;;;;;;;;;;17.80;66.30;;;;;;5048013;28;87980;-52
2024/04/01 06:01:58;;;;;;;;;;;17.80;66.00;;;;;;5047667;27;87392;-50
2024/04/01 06:04:25;;;;;;;;;;;17.80;66.10;;;;;;5047193;27;87595;-51
2024/04/01 06:06:51;;;;;;;;;;;17.90;66.20;;;;;;5046480;27;87391;-53
2024/04/01 06:09:16;;;;;;;;;;;17.80;66.10;;;;;;5044710;27;87973;-54
2024/04/01 06:11:42;;;;;;;;;;;17.80;66.10;;;;;;5043239;27;87695;-51
2024/04/01 06:14:08;;;;;;;;;;;17.80;66.10;;;;;;5044887;27;86625;-53
2024/04/01 06:16:37;;;;;;;;;;;17.80;66.10;;;;;;5047431;28;88570;-53
2024/04/01 06:19:03;;;;;;;;;;;17.80;66.10;;;;;;5049791;28;88533;-51
2024/04/01 06:21:28;;;;;;;;;;;17.80;66.20;;;;;;5046691;27;88260;-51
2024/04/01 06:23:54;;;;;;;;;;;17.80;66.10;;;;;;5043731;27;88241;-53
2024/04/01 06:26:20;;;;;;;;;;;17.80;66.10;;;;;;5047015;27;86970;-51
2024/04/01 06:28:48;;;;;;;;;;;17.80;66.20;;;;;;5046159;27;86991;-51
2024/04/01 06:31:17;;;;;;;;;;;17.80;66.10;;;;;;5043557;28;88396;-51
2024/04/01 06:33:43;;;;;;;;;;;17.80;66.30;;;;;;5047349;28;86874;-54
2024/04/01 06:36:10;;;;;;;;;;;17.80;66.20;;;;;;5047381;27;87969;-53
2024/04/01 06:38:35;;;;;;;;;;;17.80;66.20;;;;;;5046717;27;87098;-53
2024/04/01 06:41:01;;;;;;;;;;;17.80;66.20;;;;;;5046625;27;87106;-51
2024/04/01 06:43:26;;;;;;;;;;;17.80;66.20;;;;;;5044445;28;87500;-52
2024/04/01 06:45:52;;;;;;;;;;;17.80;66.20;;;;;;5043758;27;88041;-53
2024/04/01 06:48:18;;;;;;;;;;;17.80;66.20;;;;;;5046544;28;87981;-53
2024/04/01 06:50:43;;;;;;;;;;;17.80;66.20;;;;;;5046139;28;87681;-50
2024/04/01 06:53:09;;;;;;;;;;;17.80;66.20;;;;;;5043798;28;87276;-52
2024/04/01 06:55:34;;;;;;;;;;;17.80;66.20;;;;;;5043194;28;87627;-53
2024/04/01 06:58:00;;;;;;;;;;;17.80;66.20;;;;;;5046856;28;87071;-54
2024/04/01 07:00:25;;;;;;;;;;;17.80;66.20;;;;;;5047438;27;86977;-53
2024/04/01 07:02:51;;;;;;;;;;;17.80;66.20;;;;;;5044576;28;86695;-53
2024/04/01 07:05:16;;;;;;;;;;;17.80;66.20;;;;;;5041025;28;87017;-51
2024/04/01 07:07:42;;;;;;;;;;;17.80;66.30;;;;;;5046392;28;87130;-51
2024/04/01 07:10:07;;;;;;;;;;;17.80;66.20;;;;;;5046093;28;88410;-53
2024/04/01 07:12:33;;;;;;;;;;;17.80;66.20;;;;;;5046706;27;87060;-50
2024/04/01 07:14:58;;;;;;;;;;;17.80;66.30;;;;;;5046277;28;88004;-50
2024/04/01 07:17:24;;;;;;;;;;;17.80;66.30;;;;;;5043301;28;87470;-51
2024/04/01 07:19:50;;;;;;;;;;;17.80;66.30;;;;;;5042343;27;87038;-50
2024/04/01 07:22:15;;;;;;;;;;;17.80;66.40;;;;;;5048966;27;87539;-52
2024/04/01 07:24:41;;;;;;;;;;;17.80;66.40;;;;;;5045629;28;87033;-53
2024/04/01 07:27:06;;;;;;;;;;;17.80;66.40;;;;;;5041761;28;88006;-51
2024/04/01 07:29:32;;;;;;;;;;;17.80;66.40;;;;;;5046419;28;86986;-51
2024/04/01 07:31:57;;;;;;;;;;;17.80;66.40;;;;;;5042042;27;86977;-51
2024/04/01 07:34:23;;;;;;;;;;;17.80;66.40;;;;;;5045666;28;88027;-54
2024/04/01 07:36:49;;;;;;;;;;;17.80;66.40;;;;;;5045399;27;87564;-52
2024/04/01 07:39:16;;;;;;;;;;;17.80;66.40;;;;;;5046138;27;86946;-55
2024/04/01 07:41:42;;;;;;;;;;;17.80;66.50;;;;;;5043580;27;87931;-50
2024/04/01 07:44:07;;;;;;;;;;;17.80;66.50;;;;;;5048978;27;87432;-51
2024/04/01 07:46:33;;;;;;;;;;;17.80;66.40;;;;;;5045862;27;87750;-53
2024/04/01 07:48:58;;;;;;;;;;;17.80;66.40;;;;;;5044477;28;88039;-50
2024/04/01 07:51:24;;;;;;;;;;;17.80;66.40;;;;;;5045491;27;87455;-52
2024/04/01 07:53:49;;;;;;;;;;;17.80;66.30;;;;;;5046115;28;87673;-55
2024/04/01 07:56:15;;;;;;;;;;;17.80;66.40;;;;;;5044712;28;87562;-53
2024/04/01 07:58:40;;;;;;;;;;;17.80;66.30;;;;;;5045015;28;87952;-54
2024/04/01 08:01:08;;;;;;;;;;;17.90;66.40;;;;;;5045355;28;87744;-50
2024/04/01 08:03:33;;;;;;;;;;;17.80;66.30;;;;;;5043280;27;88293;-54
2024/04/01 08:05:59;;;;;;;;;;;17.80;66.30;;;;;;5048587;28;87050;-52
2024/04/01 08:08:24;;;;;;;;;;;17.90;66.40;;;;;;5043695;28;87797;-50
2024/04/01 08:10:50;;;;;;;;;;;17.90;66.40;;;;;;5045424;27;87020;-53
2024/04/01 08:13:16;;;;;;;;;;;17.90;66.30;;;;;;5043976;28;86994;-53
2024/04/01 08:15:41;;;;;;;;;;;17.90;66.40;;;;;;5045540;27;87838;-51
2024/04/01 08:18:07;;;;;;;;;;;17.90;66.40;;;;;;5040612;27;87313;-51
2024/04/01 08:20:34;;;;;;;;;;;17.90;66.50;;;;;;5045935;27;86981;-51
2024/04/01 08:22:59;;;;;;;;;;;17.90;66.50;;;;;;5044530;28;89147;-53
2024/04/01 08:25:25;;;;;;;;;;;17.90;66.40;;;;;;5044491;27;87586;-51
2024/04/01 08:27:50;;;;;;;;;;;17.90;66.50;;;;;;5047260;27;87108;-53
2024/04/01 08:30:16;;;;;;;;;;;17.90;66.40;;;;;;5044984;27;87003;-51
2024/04/01 08:32:42;;;;;;;;;;;17.90;66.40;;;;;;5043881;28;87108;-52
2024/04/01 08:35:07;;;;;;;;;;;17.90;66.50;;;;;;5043521;27;88459;-53
2024/04/01 08:37:33;;;;;;;;;;;18.00;66.60;;;;;;5044359;28;87053;-53
2024/04/01 08:39:58;;;;;;;;;;;17.90;66.40;;;;;;5045744;28;86638;-52
2024/04/01 08:42:25;;;;;;;;;;;18.00;66.50;;;;;;5041350;27;88647;-51
2024/04/01 08:44:52;;;;;;;;;;;17.90;66.40;;;;;;5044082;28;87037;-54
2024/04/01 08:47:18;;;;;;;;;;;18.00;66.60;;;;;;5044801;27;88030;-51
2024/04/01 08:49:57;;;;;;;;;;;18.00;66.60;;;;;;5047993;28;87723;-51
2024/04/01 08:52:26;;;;;;;;;;;18.00;67.10;;;;;;5044427;27;87043;-55
2024/04/01 08:54:53;;;;;;;;;;;18.00;66.50;;;;;;5041419;28;88597;-54
2024/04/01 08:57:19;;;;;;;;;;;18.00;66.60;;;;;;5041638;27;87069;-54
2024/04/01 08:59:45;;;;;;;;;;;18.00;66.50;;;;;;5044489;28;87194;-51
2024/04/01 09:02:10;;;;;;;;;;;18.00;66.60;;;;;;5043827;27;87272;-50
2024/04/01 09:04:36;;;;;;;;;;;18.00;66.60;;;;;;5042044;28;86041;-52
2024/04/01 09:07:01;;;;;;;;;;;18.00;66.60;;;;;;5042257;28;86982;-54
2024/04/01 09:09:27;;;;;;;;;;;18.00;66.60;;;;;;5047590;27;87464;-52
2024/04/01 09:11:53;;;;;;;;;;;18.10;66.70;;;;;;5042180;28;88245;-51
2024/04/01 09:14:19;;;;;;;;;;;18.00;66.70;;;;;;5041342;27;87690;-54
2024/04/01 09:16:48;;;;;;;;;;;18.00;66.60;;;;;;5044191;27;87602;-53
2024/04/01 09:19:15;;;;;;;;;;;18.10;66.60;;;;;;5044037;27;86916;-51
2024/04/01 09:21:40;;;;;;;;;;;18.10;66.60;;;;;;5043380;27;86924;-51
2024/04/01 09:24:06;;;;;;;;;;;18.10;66.60;;;;;;5043381;27;87008;-53
2024/04/01 09:26:32;;;;;;;;;;;18.10;66.70;;;;;;5042127;27;87065;-54
2024/04/01 09:28:58;;;;;;;;;;;18.10;66.70;;;;;;5038123;28;88325;-54
2024/04/01 09:31:24;;;;;;;;;;;18.10;66.80;;;;;;5046328;28;86989;-54
2024/04/01 09:33:49;;;;;;;;;;;18.20;66.80;;;;;;5043949;27;88950;-55
2024/04/01 09:36:16;;;;;;;;;;;18.20;66.80;;;;;;5043502;27;87958;-54
2024/04/01 09:38:41;;;;;;;;;;;18.20;66.80;;;;;;5041455;28;87776;-55
2024/04/01 09:41:07;;;;;;;;;;;18.20;66.80;;;;;;5042040;27;87540;-55
2024/04/01 09:43:33;;;;;;;;;;;18.20;66.80;;;;;;5043180;28;87005;-53
2024/04/01 09:45:59;;;;;;;;;;;18.20;66.80;;;;;;5041104;27;87824;-51
2024/04/01 09:48:26;;;;;;;;;;;18.20;66.90;;;;;;5041330;28;87644;-54
2024/04/01 09:51:00;;;;;;;;;;;18.20;66.90;;;;;;5042684;27;87148;-54
2024/04/01 09:53:27;;;;;;;;;;;18.30;66.90;;;;;;5047063;27;86979;-51
2024/04/01 09:56:11;;;;;;;;;;;18.30;66.90;;;;;;5041855;27;87065;-53
2024/04/01 09:58:53;;;;;;;;;;;18.30;66.90;;;;;;5040404;27;87067;-53
2024/04/01 10:01:37;;;;;;;;;;;18.30;66.90;;;;;;5041389;28;89431;-51
2024/04/01 10:04:23;;;;;;;;;;;18.40;66.90;;;;;;5043745;27;87632;-53
2024/04/01 10:07:08;;;;;;;;;;;18.40;67.00;;;;;;5042466;28;86986;-53
2024/04/01 10:09:58;;;;;;;;;;;18.40;67.00;;;;;;5039648;28;88183;-52
2024/04/01 10:12:42;;;;;;;;;;;18.40;67.00;;;;;;5043978;28;86901;-55
2024/04/01 10:15:10;;;;;;;;;;;18.40;67.00;;;;;;5043248;28;87887;-52
2024/04/01 10:17:36;;;;;;;;;;;18.50;67.10;;;;;;5047372;28;87640;-53
2024/04/01 10:20:20;;;;;;;;;;;18.40;67.00;;;;;;5043668;28;86855;-54
2024/04/01 10:22:58;;;;;;;;;;;18.50;67.00;;;;;;5046494;28;87568;-52
2024/04/01 10:25:35;;;;;;;;;;;18.50;67.00;;;;;;5045509;27;87103;-55
2024/04/01 10:28:10;;;;;;;;;;;18.50;67.00;;;;;;5043328;28;87834;-54
2024/04/01 10:30:55;;;;;;;;;;;18.60;67.10;;;;;;5044464;27;87930;-55
2024/04/01 10:33:23;;;;;;;;;;;18.60;67.10;;;;;;5044328;28;87469;-54
2024/04/01 10:35:54;;;;;;;;;;;18.60;67.20;;;;;;5046112;28;87035;-54
2024/04/01 10:38:20;;;;;;;;;;;18.60;67.10;;;;;;5042410;28;88652;-55
2024/04/01 10:40:57;;;;;;;;;;;18.60;67.00;;;;;;5048865;28;87032;-51
2024/04/01 10:43:29;;;;;;;;;;;18.60;67.10;;;;;;5046057;27;87661;-54
2024/04/01 10:46:07;;;;;;;;;;;18.60;67.00;;;;;;5045838;27;87265;-55
2024/04/01 10:48:36;;;;;;;;;;;18.70;67.00;;;;;;5044447;28;86984;-55
2024/04/01 10:51:08;;;;;;;;;;;18.70;66.80;;;;;;5043549;28;87464;-54
2024/04/01 10:53:34;;;;;;;;;;;18.70;66.70;;;;;;5045676;27;87843;-55
2024/04/01 10:56:02;;;;;;;;;;;18.70;66.80;;;;;;5046376;27;88223;-54
2024/04/01 10:58:46;;;;;;;;;;;18.80;66.70;;;;;;5044633;28;88093;-55
2024/04/01 11:01:18;;;;;;;;;;;18.80;66.60;;;;;;5046324;27;87484;-53
2024/04/01 11:03:43;;;;;;;;;;;18.70;66.70;;;;;;5048993;28;87172;-55
2024/04/01 11:06:28;;;;;;;;;;;18.80;66.70;;;;;;5046209;28;86938;-54
2024/04/01 11:08:53;;;;;;;;;;;18.80;66.70;;;;;;5043660;28;87029;-55
2024/04/01 11:11:34;;;;;;;;;;;18.90;66.60;;;;;;5044524;28;87904;-55
2024/04/01 11:14:01;;;;;;;;;;;18.90;66.60;;;;;;5045041;28;87456;-54
2024/04/01 11:16:28;;;;;;;;;;;18.90;66.40;;;;;;5043513;28;87458;-55
2024/04/01 11:19:03;;;;;;;;;;;18.90;66.50;;;;;;5044626;27;88508;-55
2024/04/01 11:21:41;;;;;;;;;;;18.90;66.40;;;;;;5043672;28;87018;-56
2024/04/01 11:24:25;;;;;;;;;;;19.00;66.60;;;;;;5045193;28;87452;-52
2024/04/01 11:27:03;;;;;;;;;;;19.00;66.60;;;;;;5037857;28;87228;-55
2024/04/01 11:29:48;;;;;;;;;;;19.00;66.70;;;;;;5045133;27;87144;-56
2024/04/01 11:32:17;;;;;;;;;;;19.00;54.20;;;;;;5044480;27;88426;-49
2024/04/01 11:35:02;;;;;;;;;;;19.10;50.30;;;;;;5043737;27;87109;-51
2024/04/01 11:37:33;;;;;;;;;;;19.30;50.00;;;;;;5045626;28;86894;-45
2024/04/01 11:40:01;;;;;;;;;;;19.40;48.40;;;;;;5045434;27;88468;-47
2024/04/01 11:42:27;;;;;;;;;;;19.50;47.80;;;;;;5042740;27;87143;-48
2024/04/01 11:44:54;;;;;;;;;;;19.60;47.00;;;;;;5042548;27;87940;-64
2024/04/01 11:47:22;;;;;;;;;;;19.70;47.30;;;;;;5047866;27;87869;-57
2024/04/01 11:49:48;;;;;;;;;;;19.80;45.40;;;;;;5045577;28;86913;-52
2024/04/01 11:52:14;;;;;;;;;;;20.00;46.30;;;;;;5045049;27;86926;-51
2024/04/01 11:54:40;;;;;;;;;;;20.00;46.00;;;;;;5045256;28;88211;-47
2024/04/01 11:57:06;;;;;;;;;;;20.10;45.30;;;;;;5045215;27;87954;-57
2024/04/01 11:59:31;;;;;;;;;;;20.10;46.00;;;;;;5039281;28;87797;-52
2024/04/01 12:01:57;;;;;;;;;;;20.20;44.60;;;;;;5045000;28;86265;-58
2024/04/01 12:04:23;;;;;;;;;;;20.20;44.10;;;;;;5045643;27;86980;-58
2024/04/01 12:06:49;;;;;;;;;;;20.20;46.80;;;;;;5045175;28;87452;-57
2024/04/01 12:09:17;;;;;;;;;;;20.10;49.00;;;;;;5043631;28;87933;-58
2024/04/01 12:11:43;;;;;;;;;;;20.10;48.50;;;;;;5045304;27;87355;-57
2024/04/01 12:14:09;;;;;;;;;;;20.10;49.40;;;;;;5044746;27;87090;-58
2024/04/01 12:16:35;;;;;;;;;;;20.20;49.90;;;;;;5043346;27;86997;-58
2024/04/01 12:19:01;;;;;;;;;;;20.20;50.80;;;;;;5044493;27;88912;-58
2024/04/01 12:21:28;;;;;;;;;;;20.20;51.10;;;;;;5044618;28;87082;-58
2024/04/01 12:23:54;;;;;;;;;;;20.20;52.00;;;;;;5044763;28;87373;-59
2024/04/01 12:26:19;;;;;;;;;;;20.20;51.90;;;;;;5045367;27;87639;-59
2024/04/01 12:28:46;;;;;;;;;;;20.20;52.70;;;;;;5045512;27;86924;-49
2024/04/01 12:31:13;;;;;;;;;;;20.20;51.40;;;;;;5047300;27;88086;-55
2024/04/01 12:33:40;;;;;;;;;;;20.20;48.60;;;;;;5037150;28;87993;-46
2024/04/01 12:36:06;;;;;;;;;;;20.30;45.90;;;;;;5043015;27;88784;-51
2024/04/01 12:38:33;;;;;;;;;;;20.60;46.10;;;;;;5039390;28;88668;-56
2024/04/01 12:41:00;;;;;;;;;;;20.70;44.90;;;;;;5042516;27;87151;-50
2024/04/01 12:43:26;;;;;;;;;;;20.70;45.40;;;;;;5044084;27;86993;-42
2024/04/01 12:45:54;;;;;;;;;;;20.90;44.10;;;;;;5043087;27;88500;-46
2024/04/01 12:48:20;;;;;;;;;;;20.90;44.30;;;;;;5044602;27;86998;-44
2024/04/01 12:50:47;;;;;;;;;;;20.90;43.80;;;;;;5044603;27;89514;-43
2024/04/01 12:53:13;;;;;;;;;;;21.00;43.90;;;;;;5045901;27;87372;-51
2024/04/01 12:55:40;;;;;;;;;;;21.10;44.20;;;;;;5043251;27;87013;-57
2024/04/01 12:58:20;;;;;;;;;;;21.20;45.10;;;;;;5040960;28;88506;-47
2024/04/01 13:00:51;;;;;;;;;;;21.20;43.40;;;;;;5041990;28;86950;-61
2024/04/01 13:03:36;;;;;;;;;;;21.30;43.50;;;;;;5042183;28;86987;-48
2024/04/01 13:06:18;;;;;;;;;;;21.40;43.40;;;;;;5040488;28;88018;-59
2024/04/01 13:09:04;;;;;;;;;;;21.40;42.60;;;;;;5043274;28;86997;-61
2024/04/01 13:11:41;;;;;;;;;;;21.40;42.60;;;;;;5041490;28;86985;-46
2024/04/01 13:14:08;;;;;;;;;;;21.40;42.90;;;;;;5039066;28;87583;-48
2024/04/01 13:16:42;;;;;;;;;;;21.50;42.00;;;;;;5044766;27;86319;-59
2024/04/01 13:19:13;;;;;;;;;;;21.50;42.60;;;;;;5042593;28;87540;-55
2024/04/01 13:21:42;;;;;;;;;;;21.50;42.30;;;;;;5043519;28;87101;-46
2024/04/01 13:24:08;;;;;;;;;;;21.40;43.80;;;;;;5040398;28;88013;-57
2024/04/01 13:26:54;;;;;;;;;;;21.40;42.30;;;;;;5039859;27;87968;-49
2024/04/01 13:29:26;;;;;;;;;;;21.50;41.30;;;;;;5035999;27;87552;-49
2024/04/01 13:31:58;;;;;;;;;;;21.50;43.00;;;;;;5041104;28;86992;-48
2024/04/01 13:34:26;;;;;;;;;;;21.60;42.10;;;;;;5042066;28;87485;-49
2024/04/01 13:36:57;;;;;;;;;;;21.60;42.10;;;;;;5043662;28;87491;-44
2024/04/01 13:39:23;;;;;;;;;;;21.70;42.50;;;;;;5043991;28;87290;-59
2024/04/01 13:41:48;;;;;;;;;;;21.80;41.70;;;;;;5042757;28;86699;-60
2024/04/01 13:44:23;;;;;;;;;;;21.80;41.40;;;;;;5042610;28;86813;-56
2024/04/01 13:46:54;;;;;;;;;;;21.80;41.00;;;;;;5041104;27;87593;-54
2024/04/01 13:49:38;;;;;;;;;;;21.80;41.00;;;;;;5040995;27;87837;-58
2024/04/01 13:52:04;;;;;;;;;;;21.80;42.30;;;;;;5046432;28;88007;-48
2024/04/01 13:54:35;;;;;;;;;;;21.80;41.90;;;;;;5045696;28;87226;-48
2024/04/01 13:57:04;;;;;;;;;;;21.80;42.70;;;;;;5046399;27;86978;-46
2024/04/01 13:59:38;;;;;;;;;;;21.90;42.00;;;;;;5049817;28;86992;-60
2024/04/01 14:02:10;;;;;;;;;;;21.90;42.30;;;;;;5042401;28;86982;-57
2024/04/01 14:04:54;;;;;;;;;;;21.90;41.40;;;;;;5045589;28;86945;-53
2024/04/01 14:07:42;;;;;;;;;;;22.00;40.30;;;;;;5045380;28;86922;-55
2024/04/01 14:10:28;;;;;;;;;;;22.00;40.60;;;;;;5046519;28;87013;-53
2024/04/01 14:13:11;;;;;;;;;;;22.10;41.30;;;;;;5044109;28;87048;-57
2024/04/01 14:15:43;;;;;;;;;;;22.10;41.50;;;;;;5040679;28;88318;-52
2024/04/01 14:18:24;;;;;;;;;;;22.10;41.60;;;;;;5042761;28;86949;-56
2024/04/01 14:20:49;;;;;;;;;;;22.10;40.60;;;;;;5044645;28;86939;-44